createdAt,value
2023-03-31T00:01:26.324Z,28.73
2023-03-31T00:03:56.780Z,26.13
2023-03-31T00:06:25.163Z,25.93
2023-03-31T00:08:54.446Z,29.70
2023-03-31T00:11:23.762Z,25.63
2023-03-31T00:13:52.275Z,25.97
2023-03-31T00:16:20.410Z,26.50
2023-03-31T00:18:51.051Z,28.23
2023-03-31T00:21:30.053Z,27.07
2023-03-31T00:24:00.059Z,26.37
2023-03-31T00:26:28.174Z,28.13
2023-03-31T00:28:57.224Z,30.83
2023-03-31T00:31:25.875Z,26.43
2023-03-31T00:33:54.665Z,28.30
2023-03-31T00:36:24.349Z,31.70
2023-03-31T00:38:52.698Z,32.03
2023-03-31T00:41:21.367Z,32.57
2023-03-31T00:44:03.132Z,40.67
2023-03-31T00:46:35.926Z,49.40
2023-03-31T00:49:04.680Z,54.33
2023-03-31T00:51:35.421Z,38.63
2023-03-31T00:54:05.108Z,39.90
2023-03-31T00:59:01.959Z,50.67
2023-03-31T01:01:31.092Z,66.43
2023-03-31T01:03:59.345Z,73.43
2023-03-31T01:06:29.649Z,70.57
2023-03-31T01:08:58.851Z,79.63
2023-03-31T01:11:29.344Z,67.03
2023-03-31T01:13:58.376Z,61.83
2023-03-31T01:16:26.334Z,56.00
2023-03-31T01:18:56.736Z,47.83
2023-03-31T01:21:35.945Z,54.27
2023-03-31T01:24:14.468Z,58.53
2023-03-31T01:26:59.397Z,37.03
2023-03-31T01:29:46.308Z,24.47
2023-03-31T01:32:16.113Z,18.60
2023-03-31T01:34:51.364Z,16.70
2023-03-31T01:37:21.796Z,17.33
2023-03-31T01:39:54.257Z,15.93
2023-03-31T01:42:24.169Z,15.23
2023-03-31T01:44:53.674Z,14.43
2023-03-31T01:47:23.776Z,12.20
2023-03-31T01:49:57.002Z,13.57
2023-03-31T01:52:29.575Z,12.90
2023-03-31T01:55:16.294Z,9.13
2023-03-31T01:57:52.434Z,11.07
2023-03-31T02:00:22.760Z,13.60
2023-03-31T02:02:52.840Z,12.87
2023-03-31T02:05:22.526Z,15.63
2023-03-31T02:07:53.329Z,12.10
2023-03-31T02:10:22.830Z,15.03
2023-03-31T02:12:51.884Z,16.00
2023-03-31T02:15:24.558Z,16.77
2023-03-31T02:17:55.219Z,15.10
2023-03-31T02:20:24.449Z,17.47
2023-03-31T02:22:54.460Z,15.83
2023-03-31T02:25:24.626Z,15.97
2023-03-31T02:27:54.637Z,15.33
2023-03-31T02:30:23.182Z,15.57
2023-03-31T02:32:51.381Z,17.10
2023-03-31T02:35:21.987Z,13.77
2023-03-31T02:37:50.880Z,17.50
2023-03-31T02:40:20.634Z,15.23
2023-03-31T02:42:49.692Z,16.00
2023-03-31T02:45:36.717Z,15.40
2023-03-31T02:48:07.153Z,17.57
2023-03-31T02:50:54.279Z,20.27
2023-03-31T02:53:26.934Z,16.60
2023-03-31T02:56:13.170Z,12.47
2023-03-31T02:58:43.989Z,16.60
2023-03-31T03:01:14.008Z,12.57
2023-03-31T03:03:50.441Z,13.60
2023-03-31T03:06:21.175Z,13.93
2023-03-31T03:08:52.859Z,11.00
2023-03-31T03:11:25.950Z,11.50
2023-03-31T03:13:56.047Z,10.17
2023-03-31T03:16:25.549Z,10.47
2023-03-31T03:18:55.465Z,8.60
2023-03-31T03:21:23.408Z,10.37
2023-03-31T03:23:53.349Z,13.43
2023-03-31T03:26:24.010Z,9.97
2023-03-31T03:28:52.538Z,8.83
2023-03-31T03:31:21.548Z,9.10
2023-03-31T03:33:50.044Z,12.10
2023-03-31T03:36:18.806Z,9.90
2023-03-31T03:38:47.220Z,8.93
2023-03-31T03:41:15.899Z,9.37
2023-03-31T03:43:44.274Z,8.37
2023-03-31T03:46:13.414Z,7.37
2023-03-31T03:48:41.963Z,6.07
2023-03-31T03:51:10.547Z,6.17
2023-03-31T03:53:39.119Z,6.30
2023-03-31T03:56:08.079Z,7.23
2023-03-31T03:58:37.847Z,6.63
2023-03-31T04:01:06.620Z,6.30
2023-03-31T04:03:34.693Z,5.50
2023-03-31T04:06:03.153Z,6.10
2023-03-31T04:08:31.621Z,7.37
2023-03-31T04:11:00.133Z,6.53
2023-03-31T04:13:28.551Z,6.50
2023-03-31T04:15:57.152Z,7.73
2023-03-31T04:18:25.061Z,8.07
2023-03-31T04:21:06.446Z,7.90
2023-03-31T04:23:38.010Z,6.67
2023-03-31T04:26:08.306Z,11.00
2023-03-31T04:28:37.501Z,13.13
2023-03-31T04:31:09.784Z,24.73
2023-03-31T04:33:40.432Z,10.97
2023-03-31T04:36:17.093Z,11.40
2023-03-31T04:38:50.951Z,10.20
2023-03-31T04:41:20.307Z,10.93
2023-03-31T04:43:48.213Z,9.93
2023-03-31T04:46:16.382Z,6.47
2023-03-31T04:48:44.927Z,7.10
2023-03-31T04:51:15.406Z,9.63
2023-03-31T04:53:43.925Z,7.80
2023-03-31T04:56:13.039Z,7.23
2023-03-31T04:58:42.031Z,6.40
2023-03-31T05:01:10.227Z,7.10
2023-03-31T05:03:38.834Z,9.60
2023-03-31T05:06:07.945Z,9.60
2023-03-31T05:08:36.971Z,9.87
2023-03-31T05:11:07.315Z,13.30
2023-03-31T05:13:35.990Z,10.97
2023-03-31T05:16:08.119Z,12.10
2023-03-31T05:18:36.280Z,14.33
2023-03-31T05:21:15.081Z,11.30
2023-03-31T05:23:43.744Z,12.53
2023-03-31T05:26:12.372Z,11.93
2023-03-31T05:28:40.466Z,12.00
2023-03-31T05:31:09.410Z,17.67
2023-03-31T05:33:42.505Z,15.13
2023-03-31T05:36:11.713Z,12.60
2023-03-31T05:38:40.350Z,13.77
2023-03-31T05:41:09.455Z,13.50
2023-03-31T05:43:39.557Z,15.60
2023-03-31T05:46:08.883Z,18.03
2023-03-31T05:51:06.776Z,15.48
2023-03-31T05:53:35.458Z,12.23
2023-03-31T05:56:06.107Z,13.67
2023-03-31T05:58:38.452Z,12.47
2023-03-31T06:01:08.548Z,14.30
2023-03-31T06:03:38.445Z,7.27
2023-03-31T06:06:08.273Z,7.13
2023-03-31T06:08:38.530Z,8.47
2023-03-31T06:11:08.830Z,9.47
2023-03-31T06:13:38.392Z,11.20
2023-03-31T06:16:07.464Z,14.47
2023-03-31T06:18:37.066Z,11.73
2023-03-31T06:26:03.935Z,13.95
2023-03-31T06:28:33.241Z,20.70
2023-03-31T06:31:06.144Z,22.60
2023-03-31T06:33:34.774Z,8.53
2023-03-31T06:36:05.150Z,7.97
2023-03-31T06:38:33.937Z,11.80
2023-03-31T06:41:02.422Z,12.63
2023-03-31T06:43:31.417Z,12.50
2023-03-31T06:45:59.530Z,11.70
2023-03-31T06:48:28.521Z,11.60
2023-03-31T06:50:57.721Z,13.53
2023-03-31T06:55:53.368Z,9.93
2023-03-31T06:58:22.091Z,12.30
2023-03-31T07:00:51.131Z,9.10
2023-03-31T07:03:21.748Z,12.07
2023-03-31T07:05:50.904Z,11.17
2023-03-31T07:10:49.093Z,14.55
2023-03-31T07:13:18.312Z,17.03
2023-03-31T07:18:15.170Z,13.30
2023-03-31T07:20:44.638Z,10.63
2023-03-31T07:23:12.944Z,12.90
2023-03-31T07:25:41.626Z,9.87
2023-03-31T07:28:10.212Z,10.33
2023-03-31T07:30:38.786Z,10.97
2023-03-31T07:33:08.105Z,9.43
2023-03-31T07:35:38.475Z,7.47
2023-03-31T07:38:07.174Z,9.60
2023-03-31T07:40:35.779Z,9.23
2023-03-31T07:43:04.433Z,6.00
2023-03-31T07:45:33.569Z,5.67
2023-03-31T07:48:02.156Z,5.67
2023-03-31T07:50:31.359Z,7.27
2023-03-31T07:57:56.045Z,7.15
2023-03-31T08:00:24.176Z,6.13
2023-03-31T08:02:52.586Z,7.40
2023-03-31T08:05:21.983Z,9.13
2023-03-31T08:07:50.799Z,5.83
2023-03-31T08:10:23.643Z,6.93
2023-03-31T08:12:51.880Z,5.43
2023-03-31T08:15:20.643Z,5.17
2023-03-31T08:17:49.228Z,4.90
2023-03-31T08:20:17.638Z,6.67
2023-03-31T08:22:45.922Z,6.87
2023-03-31T08:25:14.018Z,7.80
2023-03-31T08:27:42.475Z,6.93
2023-03-31T08:30:12.287Z,6.60
2023-03-31T08:32:40.207Z,5.77
2023-03-31T08:35:10.174Z,6.63
2023-03-31T08:37:39.398Z,5.10
2023-03-31T08:42:41.035Z,4.55
2023-03-31T08:45:14.003Z,8.57
2023-03-31T08:47:43.318Z,5.83
2023-03-31T08:50:16.371Z,6.13
2023-03-31T08:52:52.197Z,5.77
2023-03-31T08:55:33.531Z,5.80
2023-03-31T08:58:09.291Z,4.23
2023-03-31T09:00:48.073Z,6.50
2023-03-31T09:03:24.389Z,7.80
2023-03-31T09:06:00.963Z,6.63
2023-03-31T09:08:32.179Z,6.97
2023-03-31T09:11:04.019Z,6.03
2023-03-31T09:13:33.925Z,3.27
2023-03-31T09:16:07.256Z,10.37
2023-03-31T09:18:37.718Z,4.27
2023-03-31T09:21:10.200Z,4.20
2023-03-31T09:23:40.198Z,4.60
2023-03-31T09:26:10.220Z,5.90
2023-03-31T09:28:39.735Z,4.40
2023-03-31T09:31:09.679Z,3.77
2023-03-31T09:33:39.856Z,6.80
2023-03-31T09:36:12.869Z,5.00
2023-03-31T09:38:42.558Z,8.77
2023-03-31T09:41:12.207Z,4.80
2023-03-31T09:43:41.885Z,6.00
2023-03-31T09:46:30.101Z,4.13
2023-03-31T09:49:09.008Z,5.77
2023-03-31T09:51:39.141Z,5.33
2023-03-31T09:54:11.726Z,3.93
2023-03-31T09:56:44.462Z,4.67
2023-03-31T09:59:18.093Z,2.50
2023-03-31T10:01:48.498Z,6.83
2023-03-31T10:04:18.784Z,5.23
2023-03-31T10:06:48.078Z,4.13
2023-03-31T10:09:17.833Z,5.20
2023-03-31T10:11:53.977Z,3.33
2023-03-31T10:14:24.695Z,4.50
2023-03-31T10:16:57.650Z,5.03
2023-03-31T10:19:26.760Z,4.67
2023-03-31T10:29:18.576Z,3.05
2023-03-31T10:31:47.234Z,8.37
2023-03-31T10:34:19.773Z,2.40
2023-03-31T10:36:49.311Z,3.77
2023-03-31T10:39:17.796Z,5.60
2023-03-31T10:41:47.648Z,4.27
2023-03-31T10:44:17.920Z,6.90
2023-03-31T10:46:49.958Z,3.07
2023-03-31T10:49:25.936Z,3.53
2023-03-31T10:51:55.109Z,5.57
2023-03-31T10:54:23.550Z,4.10
2023-03-31T10:56:56.644Z,5.13
2023-03-31T10:59:38.858Z,3.23
2023-03-31T11:02:24.049Z,4.57
2023-03-31T11:05:13.866Z,3.43
2023-03-31T11:07:48.750Z,4.37
2023-03-31T11:10:27.844Z,4.07
2023-03-31T11:13:00.719Z,5.50
2023-03-31T11:15:31.060Z,4.50
2023-03-31T11:18:01.207Z,4.23
2023-03-31T11:20:34.504Z,3.10
2023-03-31T11:23:13.489Z,4.23
2023-03-31T11:25:43.401Z,8.73
2023-03-31T11:28:13.345Z,7.03
2023-03-31T11:30:43.332Z,4.53
2023-03-31T11:33:31.369Z,6.90
2023-03-31T11:36:11.669Z,4.60
2023-03-31T11:38:51.169Z,3.90
2023-03-31T11:41:21.649Z,3.73
2023-03-31T11:43:51.759Z,6.77
2023-03-31T11:46:38.424Z,6.83
2023-03-31T11:49:14.429Z,5.30
2023-03-31T11:51:47.588Z,5.37
2023-03-31T11:54:17.525Z,4.00
2023-03-31T11:56:46.520Z,6.43
2023-03-31T11:59:19.124Z,4.73
2023-03-31T12:01:58.557Z,3.40
2023-03-31T12:04:34.461Z,4.60
2023-03-31T12:07:04.596Z,6.93
2023-03-31T12:09:51.508Z,5.60
2023-03-31T12:12:21.829Z,5.83
2023-03-31T12:14:51.501Z,5.53
2023-03-31T12:17:21.344Z,6.07
2023-03-31T12:19:59.705Z,7.10
2023-03-31T12:22:32.847Z,4.30
2023-03-31T12:25:01.386Z,5.67
2023-03-31T12:27:34.220Z,7.03
2023-03-31T12:30:04.627Z,5.03
2023-03-31T12:32:34.534Z,3.87
2023-03-31T12:35:07.463Z,3.07
2023-03-31T12:37:53.393Z,4.03
2023-03-31T12:40:23.378Z,4.93
2023-03-31T12:43:02.373Z,3.73
2023-03-31T12:45:31.768Z,5.20
2023-03-31T12:48:07.344Z,2.83
2023-03-31T12:50:37.552Z,5.07
2023-03-31T12:53:13.464Z,2.60
2023-03-31T12:55:43.535Z,4.43
2023-03-31T12:58:32.677Z,3.57
2023-03-31T13:01:06.652Z,5.23
2023-03-31T13:03:37.651Z,4.40
2023-03-31T13:06:06.639Z,4.93
2023-03-31T13:08:54.371Z,4.70
2023-03-31T13:11:24.339Z,3.27
2023-03-31T13:14:00.668Z,3.63
2023-03-31T13:16:28.274Z,2.77
2023-03-31T13:18:57.175Z,3.97
2023-03-31T13:21:25.849Z,4.00
2023-03-31T13:23:54.268Z,2.90
2023-03-31T13:26:35.926Z,4.10
2023-03-31T13:29:17.988Z,3.93
2023-03-31T13:32:03.497Z,3.27
2023-03-31T13:34:32.942Z,4.07
2023-03-31T13:37:03.065Z,4.50
2023-03-31T13:39:33.087Z,6.87
2023-03-31T13:42:08.893Z,3.93
2023-03-31T13:44:54.678Z,4.47
2023-03-31T13:47:43.086Z,4.73
2023-03-31T13:50:16.896Z,7.83
2023-03-31T13:52:51.699Z,4.93
2023-03-31T13:55:38.473Z,2.47
2023-03-31T13:58:24.686Z,4.67
2023-03-31T14:00:59.553Z,8.33
2023-03-31T14:03:32.299Z,6.03
2023-03-31T14:06:05.135Z,2.67
2023-03-31T14:08:53.554Z,6.03
2023-03-31T14:11:23.369Z,5.57
2023-03-31T14:14:05.062Z,3.43
2023-03-31T14:16:37.848Z,5.63
2023-03-31T14:19:08.099Z,4.53
2023-03-31T14:21:38.177Z,1.93
2023-03-31T14:24:08.457Z,3.20
2023-03-31T14:26:46.352Z,5.50
2023-03-31T14:29:22.673Z,4.03
2023-03-31T14:32:08.929Z,3.27
2023-03-31T14:34:40.349Z,3.77
2023-03-31T14:37:11.662Z,4.90
2023-03-31T14:39:41.805Z,7.33
2023-03-31T14:42:14.586Z,5.53
2023-03-31T14:44:46.869Z,5.20
2023-03-31T14:47:16.492Z,3.20
2023-03-31T14:49:44.952Z,5.93
2023-03-31T14:52:14.664Z,5.43
2023-03-31T14:54:44.771Z,6.03
2023-03-31T14:57:13.967Z,4.23
2023-03-31T14:59:42.521Z,7.83
2023-03-31T15:02:12.407Z,5.27
2023-03-31T15:04:44.026Z,3.80
2023-03-31T15:07:13.435Z,9.90
2023-03-31T15:09:42.478Z,4.20
2023-03-31T15:12:15.867Z,11.33
2023-03-31T15:14:46.345Z,8.80
2023-03-31T15:17:21.900Z,4.40
2023-03-31T15:19:52.017Z,7.53
2023-03-31T15:22:20.807Z,8.43
2023-03-31T15:24:48.649Z,4.97
2023-03-31T15:27:37.862Z,8.60
2023-03-31T15:30:07.998Z,4.80
2023-03-31T15:32:37.531Z,4.87
2023-03-31T15:35:18.864Z,6.23
2023-03-31T15:37:38.216Z,7.47
2023-03-31T15:40:09.917Z,5.70
2023-03-31T15:42:39.441Z,4.10
2023-03-31T15:45:18.504Z,8.07
2023-03-31T15:47:51.435Z,4.20
2023-03-31T15:50:25.159Z,7.37
2023-03-31T15:52:59.303Z,5.87
2023-03-31T15:55:29.702Z,4.37
2023-03-31T15:57:59.341Z,7.33
2023-03-31T16:00:45.342Z,9.23
2023-03-31T16:03:23.586Z,3.57
2023-03-31T16:05:58.741Z,7.63
2023-03-31T16:08:32.212Z,4.40
2023-03-31T16:11:02.185Z,4.20
2023-03-31T16:13:31.671Z,6.27
2023-03-31T16:16:00.697Z,5.20
2023-03-31T16:18:31.331Z,5.87
2023-03-31T16:21:02.033Z,4.97
2023-03-31T16:23:31.791Z,5.87
2023-03-31T16:26:01.026Z,6.40
2023-03-31T16:30:56.697Z,11.73
2023-03-31T16:33:25.613Z,8.47
2023-03-31T16:35:56.503Z,7.90
2023-03-31T16:38:25.925Z,8.90
2023-03-31T16:40:55.710Z,15.27
2023-03-31T16:43:27.588Z,9.20
2023-03-31T16:45:58.152Z,7.10
2023-03-31T16:48:27.753Z,12.03
2023-03-31T16:50:58.659Z,14.60
2023-03-31T16:53:31.861Z,22.30
2023-03-31T16:56:00.991Z,33.27
2023-03-31T16:58:31.144Z,29.27
2023-03-31T17:00:59.531Z,17.37
2023-03-31T17:03:28.662Z,26.33
2023-03-31T17:05:59.472Z,54.37
2023-03-31T17:08:28.954Z,56.63
2023-03-31T17:10:59.227Z,53.60
2023-03-31T17:13:27.820Z,44.03
2023-03-31T17:16:04.647Z,42.80
2023-03-31T17:18:26.629Z,42.60
2023-03-31T17:20:54.660Z,38.97
2023-03-31T17:23:23.015Z,35.07
2023-03-31T17:25:51.433Z,39.23
2023-03-31T17:28:19.679Z,30.40
2023-03-31T17:30:49.869Z,27.47
2023-03-31T17:33:19.112Z,19.03
2023-03-31T17:38:14.985Z,29.90
2023-03-31T17:40:43.598Z,23.47
2023-03-31T17:43:12.527Z,17.43
2023-03-31T17:45:41.868Z,31.50
2023-03-31T17:48:10.448Z,25.23
2023-03-31T17:50:39.127Z,24.73
2023-03-31T17:53:09.433Z,18.00
2023-03-31T17:55:38.507Z,18.63
2023-03-31T17:58:08.986Z,15.10
2023-03-31T18:00:37.546Z,10.83
2023-03-31T18:03:06.390Z,14.90
2023-03-31T18:05:37.561Z,18.73
2023-03-31T18:08:06.539Z,16.57
2023-03-31T18:10:36.808Z,13.77
2023-03-31T18:13:05.596Z,18.33
2023-03-31T18:15:34.078Z,27.13
2023-03-31T18:18:02.525Z,39.77
2023-03-31T18:20:31.422Z,32.53
2023-03-31T18:23:00.637Z,32.53
2023-03-31T18:25:29.284Z,24.63
2023-03-31T18:27:58.030Z,24.97
2023-03-31T18:30:27.022Z,27.80
2023-03-31T18:32:55.297Z,33.13
2023-03-31T18:35:24.122Z,34.27
2023-03-31T18:37:52.876Z,29.13
2023-03-31T18:40:21.386Z,27.97
2023-03-31T18:42:50.050Z,33.03
2023-03-31T18:45:18.481Z,34.20
2023-03-31T18:47:47.155Z,39.57
2023-03-31T18:50:16.017Z,35.03
2023-03-31T18:52:44.384Z,37.13
2023-03-31T18:55:13.331Z,54.50
2023-03-31T18:57:42.073Z,87.47
2023-03-31T19:00:11.667Z,61.70
2023-03-31T19:02:40.526Z,31.03
2023-03-31T19:05:09.468Z,43.87
2023-03-31T19:07:37.426Z,31.80
2023-03-31T19:10:05.914Z,32.23
2023-03-31T19:12:34.601Z,35.57
2023-03-31T19:15:03.044Z,28.47
2023-03-31T19:17:31.912Z,24.07
2023-03-31T19:20:00.545Z,26.43
2023-03-31T19:22:30.683Z,22.13
2023-03-31T19:24:59.373Z,20.70
2023-03-31T19:27:27.835Z,22.20
2023-03-31T19:29:56.343Z,23.70
2023-03-31T19:32:24.414Z,18.80
2023-03-31T19:34:53.100Z,25.27
2023-03-31T19:37:21.891Z,22.07
2023-03-31T19:39:50.463Z,19.57
2023-03-31T19:42:19.130Z,20.40
2023-03-31T19:44:47.549Z,18.20
2023-03-31T19:47:16.889Z,20.77
2023-03-31T19:49:45.705Z,18.50
2023-03-31T19:52:14.014Z,21.13
2023-03-31T19:54:42.319Z,18.47
2023-03-31T19:57:10.601Z,17.37
2023-03-31T19:59:39.533Z,22.93
2023-03-31T20:02:08.967Z,21.67
2023-03-31T20:07:05.996Z,24.77
2023-03-31T20:09:34.581Z,22.23
2023-03-31T20:12:03.218Z,26.77
2023-03-31T20:14:31.498Z,26.03
2023-03-31T20:17:01.676Z,33.07
2023-03-31T20:19:30.146Z,26.20
2023-03-31T20:21:58.728Z,23.20
2023-03-31T20:24:28.442Z,29.37
2023-03-31T20:26:57.025Z,29.77
2023-03-31T20:29:25.404Z,25.37
2023-03-31T20:31:53.837Z,32.97
2023-03-31T20:34:23.286Z,38.87
2023-03-31T20:36:51.842Z,29.00
2023-03-31T20:39:20.637Z,28.40
2023-03-31T20:41:50.785Z,37.50
2023-03-31T20:44:19.502Z,41.40
2023-03-31T20:46:47.976Z,58.57
2023-03-31T20:49:16.681Z,64.13
2023-03-31T20:51:46.456Z,58.63
2023-03-31T20:54:14.984Z,59.00
2023-03-31T20:56:43.503Z,54.73
2023-03-31T20:59:13.276Z,40.03
2023-03-31T21:01:42.922Z,41.00
2023-03-31T21:04:12.274Z,53.47
2023-03-31T21:06:42.251Z,56.03
2023-03-31T21:09:13.240Z,53.80
2023-03-31T21:11:42.050Z,51.90
2023-03-31T21:14:17.311Z,63.67
2023-03-31T21:16:46.217Z,78.00
2023-03-31T21:19:14.696Z,74.67
2023-03-31T21:21:43.678Z,76.90
2023-03-31T21:24:12.963Z,82.47
2023-03-31T21:29:08.934Z,80.10
2023-03-31T21:31:36.846Z,78.67
2023-03-31T21:34:05.746Z,77.37
2023-03-31T21:36:34.571Z,75.07
2023-03-31T21:39:02.901Z,71.97
2023-03-31T21:41:31.828Z,79.77
2023-03-31T21:44:02.570Z,82.83
2023-03-31T21:46:32.043Z,76.50
2023-03-31T21:49:00.534Z,78.13
2023-03-31T21:51:28.946Z,82.97
2023-03-31T21:53:57.611Z,53.23
2023-03-31T21:56:32.130Z,39.43
2023-03-31T21:58:58.744Z,47.00
2023-03-31T22:01:27.311Z,41.40
2023-03-31T22:03:55.291Z,33.53
2023-03-31T22:06:23.463Z,42.80
2023-03-31T22:08:51.923Z,35.17
2023-03-31T22:11:20.273Z,38.63
2023-03-31T22:13:48.760Z,34.57
2023-03-31T22:16:19.107Z,33.97
2023-03-31T22:18:48.083Z,28.83
2023-03-31T22:21:17.595Z,33.73
2023-03-31T22:23:46.124Z,28.87
2023-03-31T22:26:14.625Z,30.40
2023-03-31T22:28:42.981Z,29.73
2023-03-31T22:31:11.306Z,24.27
2023-03-31T22:33:39.998Z,30.13
2023-03-31T22:36:08.939Z,18.80
2023-03-31T22:38:37.777Z,28.43
2023-03-31T22:41:05.881Z,25.00
2023-03-31T22:43:34.744Z,29.07
2023-03-31T22:46:04.439Z,30.93
2023-03-31T22:48:32.610Z,28.17
2023-03-31T22:51:03.058Z,26.33
2023-03-31T22:53:32.759Z,27.43
2023-03-31T22:56:02.768Z,25.17
2023-03-31T22:58:31.142Z,29.03
2023-03-31T23:00:59.951Z,33.90
2023-03-31T23:03:28.492Z,38.10
2023-03-31T23:05:57.000Z,34.70
2023-03-31T23:08:25.483Z,33.17
2023-03-31T23:10:58.216Z,35.40
2023-03-31T23:13:26.655Z,31.73
2023-03-31T23:15:55.944Z,32.73
2023-03-31T23:18:24.460Z,24.53
2023-03-31T23:20:52.825Z,22.97
2023-03-31T23:23:21.421Z,28.37
2023-03-31T23:25:49.980Z,21.87
2023-03-31T23:28:18.429Z,24.37
2023-03-31T23:30:54.463Z,24.37
2023-03-31T23:33:22.891Z,23.67
2023-03-31T23:35:53.314Z,22.57
2023-03-31T23:38:21.880Z,21.50
2023-03-31T23:40:50.896Z,21.63
2023-03-31T23:43:19.355Z,19.60
2023-03-31T23:45:47.248Z,17.40
2023-03-31T23:48:16.101Z,21.10
2023-03-31T23:50:44.596Z,20.37
2023-03-31T23:53:13.464Z,16.37
2023-03-31T23:55:41.433Z,19.47
2023-03-31T23:58:10.072Z,18.77
